createdAt,value
2019-03-27T00:00:46.147Z,76.60
2019-03-27T00:03:16.016Z,76.50
2019-03-27T00:05:45.908Z,76.60
2019-03-27T00:08:15.703Z,76.60
2019-03-27T00:10:45.499Z,77.50
2019-03-27T00:13:15.315Z,76.60
2019-03-27T00:15:45.111Z,76.70
2019-03-27T00:18:15.011Z,76.90
2019-03-27T00:20:44.847Z,76.80
2019-03-27T00:23:14.644Z,77.50
2019-03-27T00:25:44.595Z,76.80
2019-03-27T00:28:14.467Z,76.80
2019-03-27T00:30:44.327Z,76.90
2019-03-27T00:33:14.115Z,76.90
2019-03-27T00:35:44.003Z,76.80
2019-03-27T00:38:13.774Z,76.70
2019-03-27T00:40:43.663Z,76.80
2019-03-27T00:43:13.498Z,76.80
2019-03-27T00:45:43.312Z,76.90
2019-03-27T00:48:13.123Z,77.00
2019-03-27T00:50:42.987Z,77.10
2019-03-27T00:53:12.753Z,76.90
2019-03-27T00:55:42.515Z,77.00
2019-03-27T00:58:12.403Z,76.90
2019-03-27T01:01:07.775Z,76.80
2019-03-27T01:03:37.622Z,76.90
2019-03-27T01:06:07.716Z,76.70
2019-03-27T01:08:37.763Z,76.70
2019-03-27T01:11:07.554Z,76.70
2019-03-27T01:13:37.434Z,76.80
2019-03-27T01:16:07.250Z,76.90
2019-03-27T01:18:37.097Z,76.70
2019-03-27T01:21:06.878Z,76.40
2019-03-27T01:23:36.648Z,76.40
2019-03-27T01:26:06.480Z,76.40
2019-03-27T01:28:36.270Z,76.50
2019-03-27T01:31:06.142Z,76.50
2019-03-27T01:33:35.946Z,76.30
2019-03-27T01:36:05.783Z,76.30
2019-03-27T01:38:35.582Z,76.30
2019-03-27T01:41:05.440Z,76.40
2019-03-27T01:43:35.305Z,76.40
2019-03-27T01:46:05.118Z,76.30
2019-03-27T01:48:34.899Z,76.30
2019-03-27T01:51:04.765Z,76.50
2019-03-27T01:53:34.569Z,76.20
2019-03-27T01:56:04.386Z,76.20
2019-03-27T01:58:34.218Z,76.30
2019-03-27T02:01:04.485Z,76.40
2019-03-27T02:03:34.213Z,76.10
2019-03-27T02:06:04.085Z,76.10
2019-03-27T02:08:33.948Z,76.00
2019-03-27T02:11:03.733Z,76.00
2019-03-27T02:13:33.653Z,75.90
2019-03-27T02:16:07.261Z,75.90
2019-03-27T02:18:34.944Z,75.90
2019-03-27T02:21:04.746Z,75.80
2019-03-27T02:23:34.589Z,75.80
2019-03-27T02:26:04.413Z,75.70
2019-03-27T02:28:34.225Z,75.80
2019-03-27T02:31:04.014Z,75.80
2019-03-27T02:33:33.940Z,75.80
2019-03-27T02:36:03.735Z,75.80
2019-03-27T02:38:33.557Z,75.80
2019-03-27T02:41:03.500Z,75.70
2019-03-27T02:43:33.406Z,75.60
2019-03-27T02:46:03.279Z,75.60
2019-03-27T02:48:33.142Z,75.60
2019-03-27T02:51:02.970Z,75.50
2019-03-27T02:53:32.757Z,75.60
2019-03-27T02:56:02.570Z,75.60
2019-03-27T02:58:32.417Z,75.60
2019-03-27T03:01:02.340Z,75.60
2019-03-27T03:03:32.134Z,75.70
2019-03-27T03:06:01.959Z,75.70
2019-03-27T03:08:31.829Z,75.80
2019-03-27T03:11:01.692Z,75.80
2019-03-27T03:13:31.549Z,75.70
2019-03-27T03:16:01.340Z,75.60
2019-03-27T03:18:31.224Z,75.60
2019-03-27T03:21:01.048Z,75.60
2019-03-27T03:23:31.069Z,75.90
2019-03-27T03:26:00.904Z,75.90
2019-03-27T03:28:30.796Z,75.90
2019-03-27T03:31:02.006Z,75.80
2019-03-27T03:33:31.841Z,75.70
2019-03-27T03:36:01.628Z,75.80
2019-03-27T03:38:31.457Z,75.80
2019-03-27T03:41:01.408Z,75.90
2019-03-27T03:43:31.242Z,75.80
2019-03-27T03:46:01.161Z,75.70
2019-03-27T03:48:31.009Z,75.60
2019-03-27T03:51:02.401Z,75.70
2019-03-27T03:53:33.508Z,75.80
2019-03-27T03:56:03.836Z,75.80
2019-03-27T03:58:37.086Z,75.60
2019-03-27T04:01:07.941Z,75.70
2019-03-27T04:03:39.835Z,75.80
2019-03-27T04:06:09.686Z,76.70
2019-03-27T04:08:39.512Z,76.00
2019-03-27T04:11:09.343Z,76.10
2019-03-27T04:13:39.287Z,76.10
2019-03-27T04:16:09.200Z,76.10
2019-03-27T04:18:39.041Z,76.10
2019-03-27T04:21:08.937Z,76.10
2019-03-27T04:23:38.853Z,76.00
2019-03-27T04:26:10.521Z,75.80
2019-03-27T04:28:40.125Z,75.80
2019-03-27T04:31:10.040Z,76.00
2019-03-27T04:33:39.944Z,76.00
2019-03-27T04:36:10.676Z,75.90
2019-03-27T04:38:40.622Z,76.00
2019-03-27T04:41:10.516Z,75.90
2019-03-27T04:43:40.343Z,76.50
2019-03-27T04:46:10.175Z,75.80
2019-03-27T04:48:40.216Z,75.80
2019-03-27T04:51:10.129Z,75.90
2019-03-27T04:53:39.971Z,76.00
2019-03-27T04:56:09.859Z,76.00
2019-03-27T04:58:39.684Z,75.90
2019-03-27T05:01:09.495Z,75.80
2019-03-27T05:03:39.347Z,75.80
2019-03-27T05:06:09.214Z,75.80
2019-03-27T05:08:39.134Z,75.70
2019-03-27T05:11:08.970Z,75.60
2019-03-27T05:13:38.923Z,75.70
2019-03-27T05:16:08.804Z,75.80
2019-03-27T05:18:38.598Z,76.00
2019-03-27T05:21:08.415Z,76.00
2019-03-27T05:23:38.314Z,76.10
2019-03-27T05:26:08.193Z,76.30
2019-03-27T05:28:37.986Z,76.60
2019-03-27T05:31:07.904Z,76.90
2019-03-27T05:33:37.818Z,77.10
2019-03-27T05:36:07.601Z,77.30
2019-03-27T05:38:37.314Z,77.40
2019-03-27T05:41:07.142Z,77.70
2019-03-27T05:43:36.966Z,77.90
2019-03-27T05:46:06.810Z,78.20
2019-03-27T05:48:36.618Z,78.50
2019-03-27T05:51:06.450Z,79.70
2019-03-27T05:53:36.233Z,79.30
2019-03-27T05:56:06.042Z,79.70
2019-03-27T05:58:35.817Z,79.90
2019-03-27T06:01:05.654Z,80.20
2019-03-27T06:03:35.497Z,80.40
2019-03-27T06:06:05.289Z,80.70
2019-03-27T06:08:35.121Z,81.00
2019-03-27T06:11:04.973Z,81.20
2019-03-27T06:13:34.789Z,81.40
2019-03-27T06:16:04.581Z,81.50
2019-03-27T06:18:34.413Z,81.80
2019-03-27T06:21:04.332Z,82.00
2019-03-27T06:23:34.148Z,82.10
2019-03-27T06:26:04.067Z,82.40
2019-03-27T06:28:33.915Z,82.50
2019-03-27T06:31:03.699Z,82.80
2019-03-27T06:33:33.513Z,82.90
2019-03-27T06:36:03.325Z,83.00
2019-03-27T06:38:33.161Z,83.30
2019-03-27T06:41:03.337Z,83.40
2019-03-27T06:43:33.253Z,83.70
2019-03-27T06:46:03.041Z,84.70
2019-03-27T06:48:32.952Z,84.10
2019-03-27T06:51:02.889Z,84.30
2019-03-27T06:53:32.777Z,84.50
2019-03-27T06:56:02.692Z,84.60
2019-03-27T06:58:32.521Z,84.80
2019-03-27T07:01:02.342Z,84.90
2019-03-27T07:03:32.161Z,85.10
2019-03-27T07:06:01.985Z,85.20
2019-03-27T07:08:31.881Z,85.40
2019-03-27T07:11:01.749Z,85.50
2019-03-27T07:13:31.636Z,85.70
2019-03-27T07:16:01.452Z,85.80
2019-03-27T07:18:39.866Z,86.00
2019-03-27T07:21:02.893Z,86.10
2019-03-27T07:23:32.665Z,86.10
2019-03-27T07:26:02.752Z,86.40
2019-03-27T07:28:32.676Z,86.60
2019-03-27T07:31:02.576Z,86.60
2019-03-27T07:33:32.392Z,86.80
2019-03-27T07:36:02.313Z,86.70
2019-03-27T07:38:32.964Z,86.80
2019-03-27T07:41:02.872Z,87.10
2019-03-27T07:43:32.646Z,87.10
2019-03-27T07:46:02.424Z,87.20
2019-03-27T07:48:32.232Z,87.40
2019-03-27T07:51:02.044Z,87.40
2019-03-27T07:53:31.853Z,87.40
2019-03-27T07:56:01.655Z,87.40
2019-03-27T07:58:31.459Z,87.40
2019-03-27T08:01:01.268Z,87.40
2019-03-27T08:03:31.164Z,87.60
2019-03-27T08:06:01.016Z,87.70
2019-03-27T08:08:30.844Z,87.80
2019-03-27T08:11:00.723Z,88.00
2019-03-27T08:13:30.532Z,88.10
2019-03-27T08:16:00.435Z,88.00
2019-03-27T08:18:30.248Z,88.20
2019-03-27T08:21:00.116Z,88.20
2019-03-27T08:23:29.939Z,88.20
2019-03-27T08:26:00.109Z,88.30
2019-03-27T08:28:29.989Z,88.30
2019-03-27T08:30:59.891Z,88.10
2019-03-27T08:33:29.687Z,88.20
2019-03-27T08:35:59.540Z,88.10
2019-03-27T08:38:30.383Z,88.00
2019-03-27T08:41:00.209Z,88.00
2019-03-27T08:43:29.995Z,88.80
2019-03-27T08:46:00.334Z,88.00
2019-03-27T08:48:30.143Z,87.90
2019-03-27T08:50:59.975Z,87.80
2019-03-27T08:53:29.813Z,87.70
2019-03-27T08:55:59.687Z,87.70
2019-03-27T08:58:29.468Z,87.80
2019-03-27T09:00:59.265Z,87.40
2019-03-27T09:03:29.097Z,87.10
2019-03-27T09:05:59.747Z,86.80
2019-03-27T09:08:29.587Z,86.50
2019-03-27T09:10:59.442Z,86.20
2019-03-27T09:13:29.272Z,86.00
2019-03-27T09:15:59.043Z,85.90
2019-03-27T09:18:28.866Z,85.70
2019-03-27T09:20:58.650Z,85.50
2019-03-27T09:23:28.535Z,85.10
2019-03-27T09:25:58.338Z,84.80
2019-03-27T09:28:28.106Z,84.40
2019-03-27T09:30:58.032Z,84.10
2019-03-27T09:33:27.890Z,83.40
2019-03-27T09:35:57.799Z,82.80
2019-03-27T09:38:27.730Z,82.50
2019-03-27T09:40:57.551Z,82.20
2019-03-27T09:43:27.378Z,80.70
2019-03-27T09:45:57.161Z,79.00
2019-03-27T09:48:27.046Z,78.30
2019-03-27T09:50:56.982Z,77.50
2019-03-27T09:53:26.758Z,76.90
2019-03-27T09:55:56.578Z,76.40
2019-03-27T09:58:26.282Z,76.20
2019-03-27T10:01:03.794Z,75.90
2019-03-27T10:03:33.726Z,75.40
2019-03-27T10:06:03.574Z,74.90
2019-03-27T10:08:33.352Z,74.40
2019-03-27T10:11:03.350Z,74.00
2019-03-27T10:13:33.190Z,73.70
2019-03-27T10:16:03.158Z,73.30
2019-03-27T10:18:32.938Z,73.00
2019-03-27T10:21:02.775Z,72.70
2019-03-27T10:23:32.586Z,72.40
2019-03-27T10:26:02.410Z,72.10
2019-03-27T10:28:32.217Z,71.90
2019-03-27T10:31:02.045Z,71.50
2019-03-27T10:33:31.845Z,70.90
2019-03-27T10:36:01.749Z,70.30
2019-03-27T10:38:31.573Z,69.80
2019-03-27T10:41:01.422Z,69.30
2019-03-27T10:43:31.249Z,68.80
2019-03-27T10:46:01.147Z,68.30
2019-03-27T10:48:31.073Z,67.80
2019-03-27T10:51:00.889Z,67.20
2019-03-27T10:53:30.779Z,66.90
2019-03-27T10:56:00.648Z,66.40
2019-03-27T10:58:30.461Z,66.10
2019-03-27T11:01:00.364Z,65.40
2019-03-27T11:03:30.169Z,64.70
2019-03-27T11:05:59.992Z,63.80
2019-03-27T11:08:29.781Z,62.40
2019-03-27T11:10:59.604Z,62.00
2019-03-27T11:13:29.569Z,61.80
2019-03-27T11:15:59.284Z,61.00
2019-03-27T11:18:29.085Z,60.70
2019-03-27T11:20:58.932Z,60.20
2019-03-27T11:23:28.772Z,59.60
2019-03-27T11:25:58.620Z,59.50
2019-03-27T11:28:28.485Z,59.30
2019-03-27T11:30:58.265Z,58.80
2019-03-27T11:33:29.030Z,58.60
2019-03-27T11:35:58.904Z,58.40
2019-03-27T11:38:28.682Z,58.20
2019-03-27T11:40:58.510Z,58.00
2019-03-27T11:43:28.417Z,57.90
2019-03-27T11:45:58.269Z,57.60
2019-03-27T11:48:28.056Z,57.50
2019-03-27T11:50:57.856Z,57.40
2019-03-27T11:53:27.784Z,57.30
2019-03-27T11:55:57.664Z,57.20
2019-03-27T11:58:27.528Z,57.20
2019-03-27T12:00:57.345Z,57.30
2019-03-27T12:03:27.181Z,57.00
2019-03-27T12:05:57.032Z,56.70
2019-03-27T12:08:26.944Z,56.50
2019-03-27T12:10:56.747Z,56.30
2019-03-27T12:13:26.564Z,56.50
2019-03-27T12:15:56.386Z,56.70
2019-03-27T12:18:26.223Z,56.40
2019-03-27T12:20:59.515Z,56.30
2019-03-27T12:23:27.932Z,55.90
2019-03-27T12:25:57.789Z,55.10
2019-03-27T12:28:27.560Z,55.20
2019-03-27T12:30:57.427Z,55.60
2019-03-27T12:33:27.219Z,56.00
2019-03-27T12:35:57.152Z,56.60
2019-03-27T12:38:26.927Z,57.00
2019-03-27T12:40:56.776Z,57.50
2019-03-27T12:43:26.659Z,58.00
2019-03-27T12:45:56.517Z,58.30
2019-03-27T12:48:26.323Z,58.90
2019-03-27T12:50:56.511Z,59.10
2019-03-27T12:53:26.359Z,59.40
2019-03-27T12:55:56.207Z,59.80
2019-03-27T12:58:26.065Z,60.00
2019-03-27T13:00:55.952Z,60.30
2019-03-27T13:03:25.746Z,60.40
2019-03-27T13:05:55.571Z,60.80
2019-03-27T13:08:25.395Z,61.00
2019-03-27T13:10:55.175Z,61.40
2019-03-27T13:13:24.987Z,61.70
2019-03-27T13:15:54.867Z,61.90
2019-03-27T13:18:24.699Z,62.10
2019-03-27T13:20:54.500Z,61.90
2019-03-27T13:23:24.325Z,61.80
2019-03-27T13:25:54.143Z,61.80
2019-03-27T13:28:23.969Z,61.70
2019-03-27T13:30:53.750Z,61.90
2019-03-27T13:33:23.590Z,62.10
2019-03-27T13:35:53.418Z,62.30
2019-03-27T13:38:23.234Z,62.20
2019-03-27T13:40:53.075Z,62.20
2019-03-27T13:43:22.914Z,62.40
2019-03-27T13:45:52.735Z,62.60
2019-03-27T13:48:22.587Z,62.60
2019-03-27T13:50:52.397Z,62.60
2019-03-27T13:53:22.215Z,62.70
2019-03-27T13:55:52.101Z,62.90
2019-03-27T13:58:21.982Z,63.00
2019-03-27T14:00:51.812Z,63.10
2019-03-27T14:03:21.712Z,63.30
2019-03-27T14:05:51.527Z,63.40
2019-03-27T14:08:21.510Z,63.50
2019-03-27T14:10:51.320Z,63.60
2019-03-27T14:13:21.122Z,63.60
2019-03-27T14:15:50.966Z,63.70
2019-03-27T14:18:20.738Z,63.80
2019-03-27T14:20:50.631Z,64.00
2019-03-27T14:23:20.449Z,64.20
2019-03-27T14:25:50.277Z,64.50
2019-03-27T14:28:20.146Z,64.90
2019-03-27T14:30:51.780Z,65.40
2019-03-27T14:33:21.754Z,65.80
2019-03-27T14:35:51.535Z,66.30
2019-03-27T14:38:40.199Z,66.70
2019-03-27T14:41:10.202Z,67.20
2019-03-27T14:43:40.126Z,67.40
2019-03-27T14:46:09.957Z,67.90
2019-03-27T14:48:39.793Z,68.20
2019-03-27T14:51:09.645Z,68.40
2019-03-27T14:53:39.377Z,68.70
2019-03-27T14:56:09.245Z,68.90
2019-03-27T14:58:39.045Z,69.10
2019-03-27T15:01:08.838Z,69.20
2019-03-27T15:03:38.666Z,69.30
2019-03-27T15:06:08.506Z,69.40
2019-03-27T15:08:38.452Z,69.50
2019-03-27T15:11:08.281Z,69.50
2019-03-27T15:13:38.062Z,69.50
2019-03-27T15:16:07.924Z,69.30
2019-03-27T15:18:37.691Z,69.30
2019-03-27T15:21:07.604Z,69.10
2019-03-27T15:23:37.387Z,69.10
2019-03-27T15:26:07.211Z,69.00
2019-03-27T15:28:37.033Z,69.00
2019-03-27T15:31:19.530Z,69.10
2019-03-27T15:33:38.276Z,69.10
2019-03-27T15:36:08.224Z,69.10
2019-03-27T15:38:38.028Z,69.30
2019-03-27T15:41:07.824Z,69.60
2019-03-27T15:43:38.048Z,69.80
2019-03-27T15:46:07.940Z,70.00
2019-03-27T15:48:37.768Z,70.30
2019-03-27T15:51:07.656Z,70.50
2019-03-27T15:53:37.516Z,70.70
2019-03-27T15:56:07.348Z,70.80
2019-03-27T15:58:37.235Z,71.00
2019-03-27T16:01:08.244Z,71.00
2019-03-27T16:03:39.092Z,71.30
2019-03-27T16:06:08.876Z,71.50
2019-03-27T16:08:38.680Z,71.60
2019-03-27T16:11:08.708Z,71.70
2019-03-27T16:13:38.539Z,71.70
2019-03-27T16:16:08.452Z,71.80
2019-03-27T16:18:38.319Z,72.70
2019-03-27T16:21:08.131Z,72.10
2019-03-27T16:23:37.968Z,72.10
2019-03-27T16:26:07.760Z,72.20
2019-03-27T16:28:37.630Z,72.40
2019-03-27T16:31:07.542Z,72.60
2019-03-27T16:33:38.183Z,72.80
2019-03-27T16:36:08.151Z,72.90
2019-03-27T16:38:37.941Z,73.20
2019-03-27T16:41:07.786Z,73.30
2019-03-27T16:43:37.568Z,73.50
2019-03-27T16:46:07.455Z,73.60
2019-03-27T16:48:37.301Z,73.90
2019-03-27T16:51:07.090Z,74.10
2019-03-27T16:53:37.055Z,74.30
2019-03-27T16:56:06.903Z,74.10
2019-03-27T16:58:36.707Z,74.60
2019-03-27T17:01:06.631Z,74.80
2019-03-27T17:03:36.463Z,75.00
2019-03-27T17:06:06.311Z,75.10
2019-03-27T17:08:36.535Z,75.30
2019-03-27T17:11:06.404Z,75.60
2019-03-27T17:13:36.532Z,75.60
2019-03-27T17:16:07.195Z,75.70
2019-03-27T17:18:37.110Z,75.90
2019-03-27T17:21:07.038Z,76.10
2019-03-27T17:23:36.918Z,76.20
2019-03-27T17:26:06.832Z,76.40
2019-03-27T17:28:36.634Z,76.50
2019-03-27T17:31:06.462Z,76.60
2019-03-27T17:33:36.298Z,76.70
2019-03-27T17:36:06.344Z,76.80
2019-03-27T17:38:36.109Z,76.90
2019-03-27T17:41:05.931Z,77.90
2019-03-27T17:43:36.895Z,77.20
2019-03-27T17:46:06.761Z,77.50
2019-03-27T17:48:39.358Z,78.00
2019-03-27T17:51:15.128Z,78.50
2019-03-27T17:53:44.954Z,78.70
2019-03-27T17:56:14.778Z,79.00
2019-03-27T17:58:44.570Z,79.20
2019-03-27T18:01:14.474Z,79.30
2019-03-27T18:03:44.321Z,79.40
2019-03-27T18:06:14.113Z,79.50
2019-03-27T18:08:43.967Z,79.50
2019-03-27T18:11:13.850Z,79.60
2019-03-27T18:13:43.569Z,79.70
2019-03-27T18:16:13.390Z,79.80
2019-03-27T18:18:43.166Z,80.00
2019-03-27T18:21:12.939Z,80.10
2019-03-27T18:23:46.443Z,80.20
2019-03-27T18:26:14.271Z,80.30
2019-03-27T18:28:44.073Z,80.30
2019-03-27T18:31:13.919Z,80.40
2019-03-27T18:33:43.890Z,80.50
2019-03-27T18:36:13.879Z,80.50
2019-03-27T18:38:45.837Z,80.50
2019-03-27T18:41:15.183Z,80.60
2019-03-27T18:43:44.941Z,80.70
2019-03-27T18:46:14.721Z,80.70
2019-03-27T18:48:44.657Z,80.90
2019-03-27T18:51:14.453Z,81.10
2019-03-27T18:53:44.239Z,81.10
2019-03-27T18:56:14.059Z,81.90
2019-03-27T18:58:43.884Z,81.20
2019-03-27T19:01:13.700Z,81.20
2019-03-27T19:03:43.619Z,81.40
2019-03-27T19:06:13.396Z,81.50
2019-03-27T19:08:43.259Z,81.70
2019-03-27T19:11:13.161Z,81.90
2019-03-27T19:13:43.064Z,82.00
2019-03-27T19:16:13.124Z,82.20
2019-03-27T19:18:43.019Z,82.40
2019-03-27T19:21:12.906Z,82.60
2019-03-27T19:23:42.719Z,82.80
2019-03-27T19:26:12.499Z,83.00
2019-03-27T19:28:42.315Z,83.20
2019-03-27T19:31:12.102Z,83.30
2019-03-27T19:33:41.831Z,83.40
2019-03-27T19:36:11.615Z,83.60
2019-03-27T19:38:41.462Z,83.60
2019-03-27T19:41:11.247Z,83.70
2019-03-27T19:43:41.076Z,83.80
2019-03-27T19:46:10.943Z,83.90
2019-03-27T19:48:40.839Z,84.00
2019-03-27T19:51:11.425Z,84.10
2019-03-27T19:53:41.351Z,84.20
2019-03-27T19:56:11.295Z,84.30
2019-03-27T19:58:41.094Z,84.50
2019-03-27T20:01:10.890Z,84.60
2019-03-27T20:03:40.693Z,84.70
2019-03-27T20:06:10.483Z,84.80
2019-03-27T20:08:40.374Z,84.90
2019-03-27T20:11:10.221Z,85.30
2019-03-27T20:13:40.025Z,85.60
2019-03-27T20:16:09.838Z,86.10
2019-03-27T20:18:39.653Z,86.60
2019-03-27T20:21:09.522Z,87.20
2019-03-27T20:23:40.969Z,87.80
2019-03-27T20:26:10.781Z,88.30
2019-03-27T20:28:40.596Z,88.50
2019-03-27T20:31:10.447Z,88.70
2019-03-27T20:33:40.494Z,89.10
2019-03-27T20:36:13.024Z,89.40
2019-03-27T20:38:41.702Z,89.90
2019-03-27T20:41:11.476Z,90.00
2019-03-27T20:43:41.278Z,90.10
2019-03-27T20:46:24.105Z,90.20
2019-03-27T20:48:42.804Z,90.30
2019-03-27T20:51:12.589Z,90.40
2019-03-27T20:53:42.384Z,90.50
2019-03-27T20:56:12.171Z,90.60
2019-03-27T20:58:41.989Z,90.60
2019-03-27T21:01:12.201Z,90.70
2019-03-27T21:03:42.043Z,90.70
2019-03-27T21:06:11.923Z,90.80
2019-03-27T21:08:41.693Z,90.90
2019-03-27T21:11:11.563Z,90.90
2019-03-27T21:13:41.584Z,90.90
2019-03-27T21:16:11.476Z,90.90
2019-03-27T21:18:41.290Z,90.90
2019-03-27T21:21:11.179Z,90.90
2019-03-27T21:23:41.084Z,91.00
2019-03-27T21:26:11.183Z,91.30
2019-03-27T21:28:40.989Z,91.00
2019-03-27T21:31:10.784Z,91.00
2019-03-27T21:33:40.652Z,91.10
2019-03-27T21:36:10.463Z,91.00
2019-03-27T21:38:40.333Z,91.10
2019-03-27T21:41:10.151Z,91.10
2019-03-27T21:43:39.959Z,91.10
2019-03-27T21:46:09.791Z,91.10
2019-03-27T21:48:39.611Z,91.10
2019-03-27T21:51:09.432Z,91.10
2019-03-27T21:53:39.203Z,91.10
2019-03-27T21:56:09.315Z,91.10
2019-03-27T21:58:39.106Z,91.00
2019-03-27T22:01:08.967Z,91.00
2019-03-27T22:03:38.748Z,91.00
2019-03-27T22:06:08.621Z,91.00
2019-03-27T22:08:38.375Z,91.00
2019-03-27T22:11:08.187Z,91.00
2019-03-27T22:13:38.031Z,91.10
2019-03-27T22:16:07.840Z,91.10
2019-03-27T22:18:37.727Z,91.10
2019-03-27T22:21:07.535Z,91.10
2019-03-27T22:23:37.427Z,91.10
2019-03-27T22:26:07.288Z,91.20
2019-03-27T22:28:37.190Z,91.20
2019-03-27T22:31:06.889Z,91.20
2019-03-27T22:33:36.675Z,91.20
2019-03-27T22:36:06.516Z,91.20
2019-03-27T22:38:36.302Z,91.30
2019-03-27T22:41:06.398Z,91.30
2019-03-27T22:43:36.205Z,91.40
2019-03-27T22:46:06.040Z,91.40
2019-03-27T22:48:35.835Z,91.40
2019-03-27T22:51:05.680Z,91.40
2019-03-27T22:53:35.495Z,91.50
2019-03-27T22:56:05.397Z,91.50
2019-03-27T22:58:35.258Z,91.50
2019-03-27T23:01:05.302Z,91.50
2019-03-27T23:03:35.575Z,91.60
2019-03-27T23:06:05.403Z,91.60
2019-03-27T23:08:35.202Z,91.60
2019-03-27T23:11:05.391Z,91.60
2019-03-27T23:13:35.347Z,91.70
2019-03-27T23:16:05.235Z,91.70
2019-03-27T23:18:35.115Z,91.60
2019-03-27T23:21:05.235Z,91.70
2019-03-27T23:23:35.051Z,91.60
2019-03-27T23:26:04.835Z,91.60
2019-03-27T23:28:34.654Z,91.60
2019-03-27T23:31:04.449Z,91.70
2019-03-27T23:33:34.278Z,91.70
2019-03-27T23:36:04.226Z,91.70
2019-03-27T23:38:34.022Z,91.70
2019-03-27T23:41:03.981Z,91.70
2019-03-27T23:43:33.759Z,91.70
2019-03-27T23:46:03.588Z,91.70
2019-03-27T23:48:33.363Z,91.70
2019-03-27T23:51:03.209Z,91.80
2019-03-27T23:53:33.094Z,91.80
2019-03-27T23:56:15.571Z,91.80
2019-03-27T23:58:34.399Z,91.80
